createdAt,value
2024-01-10T00:00:42.329Z,51.93
2024-01-10T00:03:08.924Z,51.91
2024-01-10T00:05:35.458Z,51.82
2024-01-10T00:08:02.007Z,51.94
2024-01-10T00:10:28.561Z,51.81
2024-01-10T00:12:55.131Z,51.59
2024-01-10T00:15:21.702Z,51.78
2024-01-10T00:17:48.320Z,51.80
2024-01-10T00:20:15.084Z,51.74
2024-01-10T00:22:41.772Z,51.61
2024-01-10T00:25:08.913Z,52.21
2024-01-10T00:27:35.377Z,52.07
2024-01-10T00:30:01.947Z,51.73
2024-01-10T00:32:28.669Z,51.94
2024-01-10T00:34:55.459Z,51.83
2024-01-10T00:37:22.073Z,51.72
2024-01-10T00:39:48.569Z,51.82
2024-01-10T00:42:15.075Z,52.18
2024-01-10T00:44:41.599Z,51.56
2024-01-10T00:47:08.135Z,51.87
2024-01-10T00:49:34.795Z,51.71
2024-01-10T00:52:01.477Z,51.56
2024-01-10T00:54:28.004Z,51.63
2024-01-10T00:56:54.535Z,51.72
2024-01-10T00:59:21.017Z,51.57
2024-01-10T01:01:47.664Z,51.47
2024-01-10T01:04:14.237Z,51.23
2024-01-10T01:06:40.736Z,51.25
2024-01-10T01:09:07.257Z,51.57
2024-01-10T01:11:33.790Z,51.42
2024-01-10T01:14:00.397Z,51.57
2024-01-10T01:16:27.014Z,51.41
2024-01-10T01:18:53.573Z,51.65
2024-01-10T01:21:20.322Z,51.11
2024-01-10T01:23:46.845Z,51.50
2024-01-10T01:26:15.630Z,51.24
2024-01-10T01:28:42.354Z,51.20
2024-01-10T01:31:09.066Z,50.80
2024-01-10T01:33:35.659Z,51.21
2024-01-10T01:36:02.261Z,51.39
2024-01-10T01:38:28.810Z,51.52
2024-01-10T01:40:55.386Z,51.50
2024-01-10T01:43:23.964Z,51.45
2024-01-10T01:45:56.513Z,51.25
2024-01-10T01:48:25.229Z,51.49
2024-01-10T01:50:55.539Z,51.43
2024-01-10T01:53:22.714Z,51.56
2024-01-10T01:55:49.827Z,51.65
2024-01-10T01:58:16.738Z,51.60
2024-01-10T02:00:44.761Z,51.38
2024-01-10T02:03:11.899Z,51.83
2024-01-10T02:05:39.228Z,51.48
2024-01-10T02:08:06.388Z,51.65
2024-01-10T02:10:33.192Z,51.62
2024-01-10T02:13:00.098Z,51.65
2024-01-10T02:15:26.967Z,51.69
2024-01-10T02:17:53.580Z,51.52
2024-01-10T02:20:22.140Z,51.68
2024-01-10T02:22:50.177Z,51.95
2024-01-10T02:25:16.673Z,51.92
2024-01-10T02:27:43.385Z,51.57
2024-01-10T02:30:11.265Z,51.46
2024-01-10T02:32:38.421Z,51.85
2024-01-10T02:35:06.314Z,51.55
2024-01-10T02:37:32.913Z,51.57
2024-01-10T02:39:59.738Z,51.47
2024-01-10T02:42:29.931Z,51.73
2024-01-10T02:44:56.424Z,51.26
2024-01-10T02:47:23.070Z,51.48
2024-01-10T02:49:50.120Z,51.07
2024-01-10T02:52:16.812Z,51.14
2024-01-10T02:54:43.321Z,51.58
2024-01-10T02:57:09.816Z,51.85
2024-01-10T02:59:36.327Z,51.62
2024-01-10T03:02:02.973Z,51.57
2024-01-10T03:04:29.683Z,51.71
2024-01-10T03:06:56.186Z,51.64
2024-01-10T03:09:24.213Z,51.70
2024-01-10T03:11:50.753Z,51.86
2024-01-10T03:14:17.330Z,51.88
2024-01-10T03:16:44.027Z,51.70
2024-01-10T03:19:10.680Z,51.65
2024-01-10T03:21:37.539Z,51.89
2024-01-10T03:24:04.918Z,52.02
2024-01-10T03:26:31.670Z,51.99
2024-01-10T03:28:58.800Z,51.99
2024-01-10T03:31:25.407Z,52.10
2024-01-10T03:33:52.227Z,52.14
2024-01-10T03:36:19.506Z,52.31
2024-01-10T03:38:46.275Z,52.01
2024-01-10T03:41:16.800Z,51.91
2024-01-10T03:43:43.841Z,52.31
2024-01-10T03:46:10.999Z,52.25
2024-01-10T03:48:38.349Z,52.58
2024-01-10T03:51:05.322Z,51.86
2024-01-10T03:53:32.093Z,52.15
2024-01-10T03:55:58.651Z,52.83
2024-01-10T03:58:25.366Z,52.94
2024-01-10T04:00:51.893Z,52.84
2024-01-10T04:03:18.852Z,52.85
2024-01-10T04:05:45.727Z,53.21
2024-01-10T04:08:12.489Z,53.12
2024-01-10T04:10:39.014Z,53.08
2024-01-10T04:13:05.648Z,52.90
2024-01-10T04:15:32.142Z,52.75
2024-01-10T04:17:58.689Z,52.57
2024-01-10T04:20:25.423Z,52.75
2024-01-10T04:22:52.072Z,52.63
2024-01-10T04:25:18.659Z,52.61
2024-01-10T04:27:45.237Z,53.36
2024-01-10T04:30:12.848Z,53.31
2024-01-10T04:32:39.512Z,53.62
2024-01-10T04:35:07.968Z,53.31
2024-01-10T04:37:34.566Z,53.33
2024-01-10T04:40:01.065Z,53.61
2024-01-10T04:42:27.583Z,52.99
2024-01-10T04:44:54.163Z,53.29
2024-01-10T04:47:20.909Z,53.15
2024-01-10T04:49:47.646Z,53.25
2024-01-10T04:52:14.270Z,53.14
2024-01-10T04:54:40.798Z,52.98
2024-01-10T04:57:07.999Z,53.81
2024-01-10T04:59:34.543Z,53.47
2024-01-10T05:02:01.344Z,53.47
2024-01-10T05:04:27.859Z,53.78
2024-01-10T05:06:54.375Z,53.47
2024-01-10T05:09:21.005Z,53.20
2024-01-10T05:11:52.438Z,53.51
2024-01-10T05:14:22.693Z,53.16
2024-01-10T05:16:49.620Z,53.46
2024-01-10T05:19:16.463Z,53.16
2024-01-10T05:21:43.139Z,53.26
2024-01-10T05:24:09.888Z,53.39
2024-01-10T05:26:36.798Z,53.69
2024-01-10T05:29:03.375Z,53.49
2024-01-10T05:31:29.875Z,53.06
2024-01-10T05:33:56.508Z,53.08
2024-01-10T05:36:24.311Z,52.91
2024-01-10T05:38:50.813Z,53.03
2024-01-10T05:41:17.387Z,53.45
2024-01-10T05:43:45.262Z,53.21
2024-01-10T05:46:12.027Z,52.84
2024-01-10T05:48:38.641Z,52.56
2024-01-10T05:51:05.735Z,52.32
2024-01-10T05:53:32.465Z,52.43
2024-01-10T05:55:59.417Z,52.33
2024-01-10T05:58:26.137Z,52.00
2024-01-10T06:00:53.134Z,52.18
2024-01-10T06:03:19.850Z,52.03
2024-01-10T06:05:46.454Z,52.22
2024-01-10T06:08:15.217Z,52.49
2024-01-10T06:10:41.918Z,52.45
2024-01-10T06:13:08.507Z,52.32
2024-01-10T06:15:35.071Z,52.21
2024-01-10T06:18:01.726Z,52.21
2024-01-10T06:20:29.184Z,52.30
2024-01-10T06:22:56.054Z,51.98
2024-01-10T06:25:22.731Z,51.85
2024-01-10T06:27:49.240Z,51.86
2024-01-10T06:30:15.812Z,51.83
2024-01-10T06:32:42.423Z,52.05
2024-01-10T06:35:11.237Z,52.59
2024-01-10T06:37:39.178Z,52.14
2024-01-10T06:40:07.008Z,52.13
2024-01-10T06:42:34.558Z,51.95
2024-01-10T06:45:01.140Z,52.02
2024-01-10T06:47:27.790Z,51.79
2024-01-10T06:49:54.533Z,51.86
2024-01-10T06:52:21.374Z,52.03
2024-01-10T06:54:47.880Z,51.83
2024-01-10T06:57:14.436Z,51.77
2024-01-10T06:59:40.915Z,52.16
2024-01-10T07:02:07.480Z,52.03
2024-01-10T07:04:34.309Z,52.08
2024-01-10T07:07:01.837Z,52.12
2024-01-10T07:09:28.509Z,52.26
2024-01-10T07:11:55.031Z,51.98
2024-01-10T07:14:21.784Z,51.91
2024-01-10T07:16:49.157Z,52.14
2024-01-10T07:19:16.123Z,52.12
2024-01-10T07:21:43.864Z,51.79
2024-01-10T07:24:11.350Z,52.09
2024-01-10T07:26:38.300Z,52.01
2024-01-10T07:29:05.315Z,51.88
2024-01-10T07:31:31.936Z,51.98
2024-01-10T07:33:58.662Z,51.82
2024-01-10T07:36:30.956Z,52.02
2024-01-10T07:39:01.049Z,52.01
2024-01-10T07:41:28.420Z,51.95
2024-01-10T07:43:55.128Z,52.00
2024-01-10T07:46:21.692Z,52.23
2024-01-10T07:48:48.229Z,52.04
2024-01-10T07:51:14.875Z,52.24
2024-01-10T07:53:41.562Z,51.53
2024-01-10T07:56:08.172Z,51.83
2024-01-10T07:58:34.792Z,51.68
2024-01-10T08:01:01.568Z,51.71
2024-01-10T08:03:28.156Z,51.40
2024-01-10T08:05:54.798Z,51.60
2024-01-10T08:08:21.566Z,51.61
2024-01-10T08:10:48.235Z,51.53
2024-01-10T08:13:14.746Z,51.61
2024-01-10T08:15:42.847Z,51.43
2024-01-10T08:18:09.480Z,51.13
2024-01-10T08:20:36.185Z,51.19
2024-01-10T08:23:03.175Z,50.64
2024-01-10T08:25:30.862Z,50.59
2024-01-10T08:27:58.867Z,50.42
2024-01-10T08:30:26.087Z,50.12
2024-01-10T08:32:53.597Z,50.40
2024-01-10T08:35:20.518Z,50.20
2024-01-10T08:37:47.803Z,49.96
2024-01-10T08:40:16.701Z,50.20
2024-01-10T08:42:43.473Z,49.82
2024-01-10T08:45:12.177Z,49.49
2024-01-10T08:47:38.861Z,49.24
2024-01-10T08:50:06.475Z,49.40
2024-01-10T08:52:33.401Z,49.37
2024-01-10T08:55:00.035Z,49.61
2024-01-10T08:57:29.101Z,49.46
2024-01-10T08:59:55.797Z,49.38
2024-01-10T09:02:24.478Z,49.12
2024-01-10T09:04:51.517Z,48.70
2024-01-10T09:07:19.568Z,48.80
2024-01-10T09:09:46.427Z,48.14
2024-01-10T09:12:13.005Z,47.86
2024-01-10T09:14:39.760Z,46.74
2024-01-10T09:17:07.062Z,44.67
2024-01-10T09:19:33.691Z,42.29
2024-01-10T09:22:00.526Z,38.97
2024-01-10T09:24:30.361Z,36.36
2024-01-10T09:26:57.860Z,34.40
2024-01-10T09:29:27.028Z,35.59
2024-01-10T09:31:54.105Z,33.77
2024-01-10T09:34:21.537Z,32.22
2024-01-10T09:36:48.277Z,29.41
2024-01-10T09:39:15.320Z,27.49
2024-01-10T09:41:48.780Z,28.14
2024-01-10T09:44:18.848Z,26.01
2024-01-10T09:46:49.181Z,23.46
2024-01-10T09:49:16.107Z,21.06
2024-01-10T09:51:42.807Z,21.95
2024-01-10T09:54:09.554Z,20.41
2024-01-10T09:56:36.076Z,20.80
2024-01-10T09:59:07.329Z,18.37
2024-01-10T10:01:34.584Z,18.27
2024-01-10T10:04:03.458Z,17.96
2024-01-10T10:06:30.141Z,17.84
2024-01-10T10:08:56.968Z,18.96
2024-01-10T10:11:23.730Z,18.16
2024-01-10T10:13:50.345Z,17.74
2024-01-10T10:16:26.396Z,15.90
2024-01-10T10:18:59.113Z,15.97
2024-01-10T10:21:29.379Z,15.38
2024-01-10T10:24:05.030Z,14.16
2024-01-10T10:26:34.861Z,14.90
2024-01-10T10:29:01.890Z,15.11
2024-01-10T10:31:30.240Z,14.53
2024-01-10T10:33:57.169Z,15.29
2024-01-10T10:36:23.832Z,14.10
2024-01-10T10:38:50.721Z,14.19
2024-01-10T10:41:17.620Z,14.42
2024-01-10T10:43:44.417Z,14.12
2024-01-10T10:46:16.204Z,14.97
2024-01-10T10:48:44.525Z,14.33
2024-01-10T10:51:15.126Z,15.34
2024-01-10T10:53:46.406Z,15.99
2024-01-10T10:56:13.659Z,16.02
2024-01-10T10:58:44.479Z,16.05
2024-01-10T11:01:14.107Z,16.39
2024-01-10T11:03:43.838Z,16.66
2024-01-10T11:06:10.784Z,16.92
2024-01-10T11:08:43.877Z,16.82
2024-01-10T11:11:35.177Z,16.47
2024-01-10T11:14:21.268Z,16.99
2024-01-10T11:17:10.997Z,16.91
2024-01-10T11:20:00.044Z,17.14
2024-01-10T11:22:44.524Z,17.55
2024-01-10T11:25:12.262Z,17.51
2024-01-10T11:27:38.864Z,16.47
2024-01-10T11:30:06.964Z,16.14
2024-01-10T11:32:35.392Z,15.71
2024-01-10T11:35:08.492Z,15.15
2024-01-10T11:37:45.385Z,14.37
2024-01-10T11:40:15.273Z,14.83
2024-01-10T11:42:43.345Z,14.53
2024-01-10T11:45:10.169Z,13.62
2024-01-10T11:47:42.366Z,14.44
2024-01-10T11:50:09.364Z,14.05
2024-01-10T11:52:38.234Z,15.07
2024-01-10T11:55:08.399Z,16.28
2024-01-10T11:57:35.969Z,16.07
2024-01-10T12:00:03.932Z,15.58
2024-01-10T12:02:31.067Z,16.04
2024-01-10T12:04:58.099Z,15.62
2024-01-10T12:07:26.325Z,15.66
2024-01-10T12:09:53.060Z,15.29
2024-01-10T12:12:19.851Z,15.11
2024-01-10T12:14:47.527Z,15.44
2024-01-10T12:17:15.231Z,16.10
2024-01-10T12:19:46.151Z,15.75
2024-01-10T12:22:13.372Z,15.26
2024-01-10T12:24:47.820Z,15.48
2024-01-10T12:27:17.628Z,15.39
2024-01-10T12:29:44.269Z,14.79
2024-01-10T12:32:11.573Z,15.15
2024-01-10T12:34:44.027Z,14.91
2024-01-10T12:37:11.866Z,14.88
2024-01-10T12:39:39.994Z,14.76
2024-01-10T12:42:06.866Z,14.81
2024-01-10T12:44:33.526Z,15.48
2024-01-10T12:47:01.568Z,15.33
2024-01-10T12:49:28.272Z,14.83
2024-01-10T12:51:55.079Z,16.07
2024-01-10T12:54:22.016Z,16.19
2024-01-10T12:56:48.674Z,16.08
2024-01-10T12:59:15.385Z,15.86
2024-01-10T13:01:43.331Z,15.68
2024-01-10T13:04:13.586Z,17.03
2024-01-10T13:06:41.712Z,16.63
2024-01-10T13:09:08.681Z,17.00
2024-01-10T13:11:36.775Z,16.89
2024-01-10T13:14:03.502Z,16.42
2024-01-10T13:16:30.730Z,16.83
2024-01-10T13:18:59.615Z,17.16
2024-01-10T13:21:26.779Z,16.65
2024-01-10T13:23:53.559Z,16.88
2024-01-10T13:26:20.189Z,16.57
2024-01-10T13:28:46.879Z,16.77
2024-01-10T13:31:13.990Z,16.36
2024-01-10T13:33:46.633Z,16.56
2024-01-10T13:36:15.502Z,16.91
2024-01-10T13:38:42.167Z,17.39
2024-01-10T13:41:09.169Z,17.59
2024-01-10T13:43:35.720Z,17.46
2024-01-10T13:46:08.606Z,18.15
2024-01-10T13:48:36.731Z,18.86
2024-01-10T13:51:03.581Z,20.15
2024-01-10T13:53:30.170Z,21.38
2024-01-10T13:55:56.941Z,22.62
2024-01-10T13:58:24.834Z,24.24
2024-01-10T14:00:52.613Z,27.04
2024-01-10T14:03:19.336Z,28.82
2024-01-10T14:05:46.224Z,29.96
2024-01-10T14:08:12.951Z,31.39
2024-01-10T14:10:40.405Z,31.33
2024-01-10T14:13:06.820Z,33.68
2024-01-10T14:15:33.379Z,33.17
2024-01-10T14:18:00.078Z,32.89
2024-01-10T14:20:26.821Z,32.98
2024-01-10T14:22:53.697Z,33.90
2024-01-10T14:25:21.975Z,35.30
2024-01-10T14:27:48.843Z,35.92
2024-01-10T14:30:16.758Z,35.79
2024-01-10T14:32:43.995Z,36.33
2024-01-10T14:35:11.060Z,35.99
2024-01-10T14:37:38.062Z,37.38
2024-01-10T14:40:06.036Z,36.62
2024-01-10T14:42:34.141Z,39.14
2024-01-10T14:45:02.339Z,38.27
2024-01-10T14:47:30.375Z,39.27
2024-01-10T14:49:59.044Z,39.00
2024-01-10T14:52:28.696Z,38.91
2024-01-10T14:54:55.356Z,39.69
2024-01-10T14:57:23.213Z,40.23
2024-01-10T14:59:49.941Z,40.87
2024-01-10T15:02:19.718Z,41.42
2024-01-10T15:04:46.635Z,40.68
2024-01-10T15:07:14.451Z,40.95
2024-01-10T15:09:43.056Z,40.89
2024-01-10T15:12:10.497Z,42.03
2024-01-10T15:14:39.939Z,43.07
2024-01-10T15:17:09.948Z,42.69
2024-01-10T15:19:37.514Z,42.95
2024-01-10T15:22:06.153Z,42.46
2024-01-10T15:24:33.608Z,43.32
2024-01-10T15:27:08.153Z,43.27
2024-01-10T15:29:34.911Z,45.31
2024-01-10T15:32:02.087Z,43.32
2024-01-10T15:34:29.017Z,42.95
2024-01-10T15:36:55.623Z,43.29
2024-01-10T15:39:22.640Z,43.65
2024-01-10T15:41:51.121Z,43.07
2024-01-10T15:44:22.122Z,43.61
2024-01-10T15:46:49.818Z,43.21
2024-01-10T15:49:17.205Z,43.50
2024-01-10T15:51:44.040Z,43.72
2024-01-10T15:54:10.892Z,44.23
2024-01-10T15:56:40.512Z,43.34
2024-01-10T15:59:08.251Z,43.91
2024-01-10T16:01:37.953Z,43.78
2024-01-10T16:04:04.974Z,44.26
2024-01-10T16:06:33.261Z,43.25
2024-01-10T16:09:01.089Z,42.67
2024-01-10T16:11:28.141Z,44.33
2024-01-10T16:13:54.745Z,44.06
2024-01-10T16:16:30.644Z,44.28
2024-01-10T16:18:58.023Z,44.63
2024-01-10T16:21:24.571Z,46.52
2024-01-10T16:23:52.295Z,47.88
2024-01-10T16:26:18.933Z,46.36
2024-01-10T16:28:45.873Z,48.41
2024-01-10T16:31:12.541Z,47.04
2024-01-10T16:33:39.258Z,52.83
2024-01-10T16:36:06.624Z,47.29
2024-01-10T16:38:33.277Z,46.78
2024-01-10T16:41:00.320Z,47.93
2024-01-10T16:43:28.245Z,46.82
2024-01-10T16:45:56.819Z,46.62
2024-01-10T16:48:23.605Z,46.84
2024-01-10T16:50:50.713Z,47.41
2024-01-10T16:53:17.579Z,47.87
2024-01-10T16:55:44.234Z,51.24
2024-01-10T16:58:10.847Z,50.75
2024-01-10T17:00:37.764Z,49.23
2024-01-10T17:03:05.000Z,53.25
2024-01-10T17:05:35.412Z,53.09
2024-01-10T17:08:05.089Z,52.14
2024-01-10T17:10:31.811Z,50.36
2024-01-10T17:12:58.326Z,50.11
2024-01-10T17:15:24.817Z,49.42
2024-01-10T17:17:51.569Z,49.96
2024-01-10T17:20:18.295Z,50.78
2024-01-10T17:22:44.889Z,49.38
2024-01-10T17:25:12.715Z,49.61
2024-01-10T17:27:39.962Z,49.38
2024-01-10T17:30:08.052Z,49.80
2024-01-10T17:32:35.126Z,50.86
2024-01-10T17:35:04.162Z,52.72
2024-01-10T17:37:31.040Z,51.90
2024-01-10T17:39:57.715Z,53.32
2024-01-10T17:42:24.320Z,50.72
2024-01-10T17:44:50.890Z,50.52
2024-01-10T17:47:17.683Z,52.24
2024-01-10T17:49:44.457Z,51.86
2024-01-10T17:52:11.068Z,53.22
2024-01-10T17:54:37.946Z,52.09
2024-01-10T17:57:05.404Z,51.62
2024-01-10T17:59:31.930Z,52.34
2024-01-10T18:01:58.724Z,51.92
2024-01-10T18:04:25.380Z,51.82
2024-01-10T18:06:52.068Z,52.18
2024-01-10T18:09:18.640Z,51.74
2024-01-10T18:11:45.179Z,51.58
2024-01-10T18:14:11.905Z,52.34
2024-01-10T18:16:38.483Z,52.00
2024-01-10T18:19:05.066Z,51.96
2024-01-10T18:21:31.733Z,52.14
2024-01-10T18:23:59.281Z,51.86
2024-01-10T18:26:26.261Z,51.99
2024-01-10T18:28:53.051Z,52.36
2024-01-10T18:31:19.690Z,52.72
2024-01-10T18:33:48.169Z,52.08
2024-01-10T18:36:16.144Z,52.70
2024-01-10T18:38:42.888Z,52.05
2024-01-10T18:41:09.800Z,53.54
2024-01-10T18:43:36.575Z,52.60
2024-01-10T18:46:03.114Z,52.15
2024-01-10T18:48:29.737Z,53.05
2024-01-10T18:50:56.496Z,53.27
2024-01-10T18:53:23.007Z,52.12
2024-01-10T18:55:49.631Z,53.28
2024-01-10T18:58:16.782Z,52.84
2024-01-10T19:00:44.360Z,53.70
2024-01-10T19:03:10.975Z,53.04
2024-01-10T19:05:38.020Z,53.16
2024-01-10T19:08:05.064Z,53.19
2024-01-10T19:10:31.584Z,53.71
2024-01-10T19:12:58.102Z,53.16
2024-01-10T19:15:25.047Z,53.65
2024-01-10T19:17:51.847Z,53.66
2024-01-10T19:20:18.662Z,53.67
2024-01-10T19:22:47.260Z,53.39
2024-01-10T19:25:13.880Z,52.84
2024-01-10T19:27:40.488Z,52.87
2024-01-10T19:30:10.811Z,52.49
2024-01-10T19:32:37.495Z,53.73
2024-01-10T19:35:04.955Z,53.72
2024-01-10T19:37:31.518Z,53.64
2024-01-10T19:39:58.903Z,54.92
2024-01-10T19:42:26.701Z,56.26
2024-01-10T19:44:54.299Z,58.02
2024-01-10T19:47:20.932Z,55.14
2024-01-10T19:49:47.503Z,55.85
2024-01-10T19:52:16.226Z,55.35
2024-01-10T19:54:43.428Z,55.70
2024-01-10T19:57:09.934Z,57.70
2024-01-10T19:59:36.545Z,56.41
2024-01-10T20:02:08.906Z,56.02
2024-01-10T20:04:35.592Z,55.23
2024-01-10T20:07:02.050Z,55.07
2024-01-10T20:09:28.852Z,55.00
2024-01-10T20:11:55.430Z,55.71
2024-01-10T20:14:22.189Z,55.68
2024-01-10T20:16:49.756Z,54.75
2024-01-10T20:19:17.104Z,54.77
2024-01-10T20:21:43.696Z,55.71
2024-01-10T20:24:10.316Z,56.29
2024-01-10T20:26:37.070Z,55.48
2024-01-10T20:29:03.778Z,55.12
2024-01-10T20:31:30.436Z,55.53
2024-01-10T20:33:57.060Z,56.21
2024-01-10T20:36:24.259Z,56.08
2024-01-10T20:38:50.893Z,56.16
2024-01-10T20:41:17.466Z,56.57
2024-01-10T20:43:43.971Z,56.10
2024-01-10T20:46:10.532Z,55.91
2024-01-10T20:48:37.250Z,57.93
2024-01-10T20:51:04.073Z,57.59
2024-01-10T20:53:30.651Z,57.28
2024-01-10T20:55:57.386Z,56.72
2024-01-10T20:58:23.979Z,56.32
2024-01-10T21:00:53.122Z,59.47
2024-01-10T21:03:20.054Z,59.33
2024-01-10T21:05:46.899Z,59.42
2024-01-10T21:08:15.080Z,62.10
2024-01-10T21:10:41.748Z,60.28
2024-01-10T21:13:08.240Z,58.53
2024-01-10T21:15:35.094Z,59.82
2024-01-10T21:18:01.796Z,58.46
2024-01-10T21:20:31.039Z,59.32
2024-01-10T21:23:00.256Z,60.08
2024-01-10T21:25:27.647Z,61.64
2024-01-10T21:27:54.187Z,60.85
2024-01-10T21:30:20.827Z,59.25
2024-01-10T21:32:47.677Z,60.46
2024-01-10T21:35:14.489Z,60.28
2024-01-10T21:37:41.364Z,60.58
2024-01-10T21:40:08.674Z,63.87
2024-01-10T21:42:35.404Z,63.72
2024-01-10T21:45:01.850Z,60.36
2024-01-10T21:47:33.001Z,59.94
2024-01-10T21:50:00.800Z,59.98
2024-01-10T21:52:28.066Z,60.44
2024-01-10T21:54:55.351Z,60.44
2024-01-10T21:57:24.115Z,62.11
2024-01-10T21:59:51.195Z,62.60
2024-01-10T22:02:17.807Z,60.70
2024-01-10T22:04:45.873Z,60.50
2024-01-10T22:07:13.295Z,64.56
2024-01-10T22:09:39.862Z,61.07
2024-01-10T22:12:08.132Z,59.82
2024-01-10T22:14:34.934Z,61.89
2024-01-10T22:17:01.835Z,61.23
2024-01-10T22:19:28.619Z,60.10
2024-01-10T22:21:55.389Z,59.56
2024-01-10T22:24:22.175Z,59.88
2024-01-10T22:26:51.545Z,59.88
2024-01-10T22:29:18.736Z,59.83
2024-01-10T22:31:45.388Z,60.15
2024-01-10T22:34:12.176Z,59.95
2024-01-10T22:36:38.864Z,60.21
2024-01-10T22:39:05.592Z,60.45
2024-01-10T22:41:32.230Z,60.54
2024-01-10T22:43:58.850Z,64.79
2024-01-10T22:46:26.027Z,62.59
2024-01-10T22:48:53.056Z,61.62
2024-01-10T22:51:19.738Z,61.61
2024-01-10T22:53:46.317Z,61.14
2024-01-10T22:56:13.029Z,61.19
2024-01-10T22:58:39.600Z,61.28
2024-01-10T23:01:06.177Z,61.51
2024-01-10T23:03:39.335Z,61.82
2024-01-10T23:06:07.365Z,62.44
2024-01-10T23:08:36.297Z,65.71
2024-01-10T23:11:03.569Z,62.84
2024-01-10T23:13:30.186Z,62.47
2024-01-10T23:15:56.757Z,62.64
2024-01-10T23:18:23.532Z,62.53
2024-01-10T23:20:50.128Z,62.28
2024-01-10T23:23:16.699Z,63.59
2024-01-10T23:25:43.329Z,63.94
2024-01-10T23:28:09.946Z,62.72
2024-01-10T23:30:36.530Z,62.58
2024-01-10T23:33:04.403Z,63.09
2024-01-10T23:35:40.119Z,63.04
2024-01-10T23:38:12.123Z,63.39
2024-01-10T23:40:41.250Z,63.42
2024-01-10T23:43:15.508Z,62.93
2024-01-10T23:45:50.756Z,62.99
2024-01-10T23:48:17.609Z,62.57
2024-01-10T23:50:44.761Z,63.32
2024-01-10T23:53:11.479Z,63.49
2024-01-10T23:55:37.981Z,63.49
2024-01-10T23:58:04.787Z,62.49
